»·PEaware :: N251SM KSNA-KBUR

N251SM :: KSNA-KBUR

FLIGHT INFORMATION

Flight Status: Arrived
Operator: Privately registered:
United States
More flights under this callsign
Pilot: John A. (24927)
Aircraft: BEECH AIRCRAFT BARON
(BE58)
More flights by this aircraft type
Origin: KSNA John Wayne-Orange Co
United States
Destination: KBUR Bob Hope-Burbank
United States
More flights between these airports :: More routes between these airports
Route: SLI V23 POPPR SMO125R SMO SMO311R SILEX
File this flight plan on PilotEdge
Remarks: CSTP1
Altitude:
(Current/Filed)
4,000ft
Speed:
(Current/Filed)
180kts
Departed: 01-Dec-20 06:33 PM
Arrived: 01-Dec-20 07:00 PM
Distance/Time
Traveled:
40nm/0:27
Distance/Time
To Go:
Arrived

Flight Plot

Page will automatically refresh every two minutes.


Map Options




Map Legend


Flown Route
Filed Route
Departure Airport
Arrival Airport
Navaid (VOR, NDB)
Fix

Horizontal Profiles

Position Reports

Time Latitude Longitude Heading Altitude Ground
Speed
01-Dec-20 18:12 33.667744 -117.871437 41 59ft 0kts
01-Dec-20 18:13 33.667744 -117.871437 41 59ft 0kts
01-Dec-20 18:14 33.667744 -117.871437 41 59ft 0kts
01-Dec-20 18:15 33.667744 -117.871437 41 59ft 0kts
01-Dec-20 18:16 33.667744 -117.871437 41 59ft 0kts
01-Dec-20 18:17 33.667744 -117.871437 41 59ft 0kts
01-Dec-20 18:18 33.667744 -117.871437 41 59ft 0kts
01-Dec-20 18:19 33.667744 -117.871437 41 59ft 0kts
01-Dec-20 18:20 33.667744 -117.871437 41 59ft 0kts
01-Dec-20 18:21 33.667744 -117.871437 41 59ft 0kts
01-Dec-20 18:23 33.667744 -117.871437 41 59ft 0kts
01-Dec-20 18:24 33.667744 -117.871437 41 59ft 0kts
01-Dec-20 18:25 33.667744 -117.871437 41 59ft 0kts
01-Dec-20 18:26 33.667744 -117.871437 41 59ft 0kts
01-Dec-20 18:27 33.667744 -117.871437 41 59ft 0kts
01-Dec-20 18:28 33.670271 -117.869739 39 59ft 22kts
01-Dec-20 18:29 33.675567 -117.866187 30 59ft 22kts
01-Dec-20 18:30 33.679974 -117.863668 296 59ft 0kts
01-Dec-20 18:31 33.679974 -117.863668 296 59ft 0kts
01-Dec-20 18:32 33.680034 -117.863809 296 59ft 6kts
01-Dec-20 18:33 33.658916 -117.877078 224 1365ft 114kts
01-Dec-20 18:34 33.634429 -117.914597 248 2645ft 153kts
01-Dec-20 18:35 33.661078 -117.948983 328 3989ft 162kts
01-Dec-20 18:36 33.703181 -117.982826 322 3990ft 191kts
01-Dec-20 18:37 33.746013 -118.021203 321 3988ft 193kts
01-Dec-20 18:37 33.781525 -118.053232 322 3988ft 193kts
01-Dec-20 18:39 33.800871 -118.121027 285 3987ft 190kts
01-Dec-20 18:39 33.813165 -118.172009 286 3986ft 190kts
01-Dec-20 18:41 33.830969 -118.243319 287 3987ft 190kts
01-Dec-20 18:41 33.844038 -118.293984 299 3976ft 191kts
01-Dec-20 18:43 33.889441 -118.343808 322 3989ft 190kts
01-Dec-20 18:43 33.924366 -118.376166 321 3990ft 190kts
01-Dec-20 18:45 33.973108 -118.421939 321 3990ft 190kts
01-Dec-20 18:45 34.007861 -118.454643 322 3990ft 190kts
01-Dec-20 18:46 34.050898 -118.491374 325 3989ft 189kts
01-Dec-20 18:47 34.093656 -118.527527 326 3987ft 186kts
01-Dec-20 18:48 34.128580 -118.571217 292 3993ft 189kts
01-Dec-20 18:49 34.146535 -118.630651 292 3992ft 184kts
01-Dec-20 18:50 34.164407 -118.688241 291 3996ft 182kts
01-Dec-20 18:51 34.197211 -118.717468 39 3993ft 185kts
01-Dec-20 18:52 34.200433 -118.660892 94 3991ft 179kts
01-Dec-20 18:53 34.200606 -118.601295 87 3687ft 182kts
01-Dec-20 18:54 34.200083 -118.543052 87 3076ft 168kts
01-Dec-20 18:55 34.199440 -118.491838 86 2772ft 125kts
01-Dec-20 18:56 34.199043 -118.451882 87 2120ft 116kts
01-Dec-20 18:57 34.198541 -118.413097 90 1494ft 112kts
01-Dec-20 18:58 34.197880 -118.375748 89 872ft 101kts
01-Dec-20 18:59 34.198631 -118.360264 358 733ft 0kts
01-Dec-20 19:00 34.199737 -118.359980 73 733ft 0kts
01-Dec-20 19:01 34.199737 -118.359980 73 733ft 0kts
01-Dec-20 19:02 34.199737 -118.359980 73 733ft 0kts
01-Dec-20 19:03 34.199737 -118.359980 73 733ft 0kts
01-Dec-20 19:04 34.199737 -118.359980 73 733ft 0kts
01-Dec-20 19:05 34.199737 -118.359980 73 733ft 0kts
01-Dec-20 19:06 34.199737 -118.359980 73 733ft 0kts
01-Dec-20 19:07 34.199737 -118.359980 73 733ft 0kts
01-Dec-20 19:08 34.199737 -118.359980 73 733ft 0kts
01-Dec-20 19:09 34.199737 -118.359980 73 733ft 0kts

Navigation Log

Ident Type
Flight plan parsing failed, navigation log unavailable